sensor_id;sensor_type;location;lat;lon;timestamp;pressure;altitude;pressure_sealevel;temperature;humidity
34586;BME280;20816;50.950;11.108;2023-04-24T00:01:02;97185.72;;;11.30;100.00
34586;BME280;20816;50.950;11.108;2023-04-24T00:03:28;97182.50;;;11.25;100.00
34586;BME280;20816;50.950;11.108;2023-04-24T00:05:55;97192.78;;;11.11;100.00
34586;BME280;20816;50.950;11.108;2023-04-24T00:08:22;97191.22;;;11.07;100.00
34586;BME280;20816;50.950;11.108;2023-04-24T00:10:50;97194.84;;;11.04;100.00
34586;BME280;20816;50.950;11.108;2023-04-24T00:13:18;97185.41;;;11.00;100.00
34586;BME280;20816;50.950;11.108;2023-04-24T00:15:45;97186.59;;;11.12;100.00
34586;BME280;20816;50.950;11.108;2023-04-24T00:18:12;97177.78;;;11.13;100.00
34586;BME280;20816;50.950;11.108;2023-04-24T00:20:39;97174.59;;;11.06;100.00
34586;BME280;20816;50.950;11.108;2023-04-24T00:23:06;97186.44;;;11.15;100.00
34586;BME280;20816;50.950;11.108;2023-04-24T00:25:32;97180.69;;;11.07;100.00
34586;BME280;20816;50.950;11.108;2023-04-24T00:27:59;97172.97;;;11.04;100.00
34586;BME280;20816;50.950;11.108;2023-04-24T00:30:25;97172.81;;;11.07;100.00
34586;BME280;20816;50.950;11.108;2023-04-24T00:32:52;97182.06;;;10.97;100.00
34586;BME280;20816;50.950;11.108;2023-04-24T00:35:19;97173.41;;;10.94;100.00
34586;BME280;20816;50.950;11.108;2023-04-24T00:37:46;97179.69;;;10.90;100.00
34586;BME280;20816;50.950;11.108;2023-04-24T00:40:12;97174.16;;;10.97;100.00
34586;BME280;20816;50.950;11.108;2023-04-24T00:42:40;97173.13;;;11.01;100.00
34586;BME280;20816;50.950;11.108;2023-04-24T00:45:07;97181.78;;;11.03;100.00
34586;BME280;20816;50.950;11.108;2023-04-24T00:47:34;97184.69;;;10.97;100.00
34586;BME280;20816;50.950;11.108;2023-04-24T00:50:04;97182.84;;;10.99;100.00
34586;BME280;20816;50.950;11.108;2023-04-24T00:52:32;97179.84;;;10.87;100.00
34586;BME280;20816;50.950;11.108;2023-04-24T00:54:59;97185.03;;;10.89;100.00
34586;BME280;20816;50.950;11.108;2023-04-24T00:57:26;97181.56;;;10.88;100.00
34586;BME280;20816;50.950;11.108;2023-04-24T00:59:53;97179.00;;;10.87;100.00
34586;BME280;20816;50.950;11.108;2023-04-24T01:02:21;97193.00;;;10.87;100.00
34586;BME280;20816;50.950;11.108;2023-04-24T01:04:50;97194.69;;;10.88;100.00
34586;BME280;20816;50.950;11.108;2023-04-24T01:07:19;97193.28;;;10.81;100.00
34586;BME280;20816;50.950;11.108;2023-04-24T01:09:48;97177.06;;;10.90;100.00
34586;BME280;20816;50.950;11.108;2023-04-24T01:12:15;97184.91;;;10.92;100.00
34586;BME280;20816;50.950;11.108;2023-04-24T01:14:42;97175.59;;;10.85;100.00
34586;BME280;20816;50.950;11.108;2023-04-24T01:17:09;97180.94;;;10.83;100.00
34586;BME280;20816;50.950;11.108;2023-04-24T01:19:35;97174.94;;;10.80;100.00
34586;BME280;20816;50.950;11.108;2023-04-24T01:22:09;97167.56;;;10.88;100.00
34586;BME280;20816;50.950;11.108;2023-04-24T01:24:37;97171.66;;;10.75;100.00
34586;BME280;20816;50.950;11.108;2023-04-24T01:27:04;97178.06;;;10.69;100.00
34586;BME280;20816;50.950;11.108;2023-04-24T01:29:30;97169.78;;;10.58;100.00
34586;BME280;20816;50.950;11.108;2023-04-24T01:31:57;97166.41;;;10.56;100.00
34586;BME280;20816;50.950;11.108;2023-04-24T01:34:25;97174.66;;;10.67;100.00
34586;BME280;20816;50.950;11.108;2023-04-24T01:36:52;97172.22;;;10.62;100.00
34586;BME280;20816;50.950;11.108;2023-04-24T01:39:19;97171.91;;;10.50;100.00
34586;BME280;20816;50.950;11.108;2023-04-24T01:41:47;97168.66;;;10.45;100.00
34586;BME280;20816;50.950;11.108;2023-04-24T01:44:14;97163.84;;;10.54;100.00
34586;BME280;20816;50.950;11.108;2023-04-24T01:46:41;97164.84;;;10.52;100.00
34586;BME280;20816;50.950;11.108;2023-04-24T01:49:07;97167.31;;;10.55;100.00
34586;BME280;20816;50.950;11.108;2023-04-24T01:51:34;97162.84;;;10.57;100.00
34586;BME280;20816;50.950;11.108;2023-04-24T01:54:01;97149.84;;;10.54;100.00
34586;BME280;20816;50.950;11.108;2023-04-24T01:56:33;97152.56;;;10.52;100.00
34586;BME280;20816;50.950;11.108;2023-04-24T01:59:03;97152.22;;;10.60;100.00
34586;BME280;20816;50.950;11.108;2023-04-24T02:01:34;97137.00;;;10.66;100.00
34586;BME280;20816;50.950;11.108;2023-04-24T02:04:05;97134.31;;;10.68;100.00
34586;BME280;20816;50.950;11.108;2023-04-24T02:06:33;97126.94;;;10.76;100.00
34586;BME280;20816;50.950;11.108;2023-04-24T02:09:00;97126.56;;;10.65;100.00
34586;BME280;20816;50.950;11.108;2023-04-24T02:11:26;97122.91;;;10.69;100.00
34586;BME280;20816;50.950;11.108;2023-04-24T02:13:53;97119.09;;;10.56;100.00
34586;BME280;20816;50.950;11.108;2023-04-24T02:16:20;97119.88;;;10.58;100.00
34586;BME280;20816;50.950;11.108;2023-04-24T02:18:46;97113.16;;;10.71;100.00
34586;BME280;20816;50.950;11.108;2023-04-24T02:21:13;97107.63;;;10.77;100.00
34586;BME280;20816;50.950;11.108;2023-04-24T02:23:39;97111.19;;;10.76;100.00
34586;BME280;20816;50.950;11.108;2023-04-24T02:26:06;97115.13;;;10.66;100.00
34586;BME280;20816;50.950;11.108;2023-04-24T02:28:33;97119.75;;;10.61;100.00
34586;BME280;20816;50.950;11.108;2023-04-24T02:30:59;97120.72;;;10.58;100.00
34586;BME280;20816;50.950;11.108;2023-04-24T02:33:26;97112.84;;;10.58;100.00
34586;BME280;20816;50.950;11.108;2023-04-24T02:35:53;97114.00;;;10.53;100.00
34586;BME280;20816;50.950;11.108;2023-04-24T02:38:20;97124.63;;;10.50;100.00
34586;BME280;20816;50.950;11.108;2023-04-24T02:40:46;97110.72;;;10.48;100.00
34586;BME280;20816;50.950;11.108;2023-04-24T02:43:13;97108.88;;;10.50;100.00
34586;BME280;20816;50.950;11.108;2023-04-24T02:45:39;97121.31;;;10.46;100.00
34586;BME280;20816;50.950;11.108;2023-04-24T02:48:06;97123.78;;;10.49;100.00
34586;BME280;20816;50.950;11.108;2023-04-24T02:50:33;97119.38;;;10.50;100.00
34586;BME280;20816;50.950;11.108;2023-04-24T02:52:59;97124.78;;;10.47;100.00
34586;BME280;20816;50.950;11.108;2023-04-24T02:55:26;97122.94;;;10.49;100.00
34586;BME280;20816;50.950;11.108;2023-04-24T02:57:53;97113.78;;;10.38;100.00
34586;BME280;20816;50.950;11.108;2023-04-24T03:00:20;97105.75;;;10.42;100.00
34586;BME280;20816;50.950;11.108;2023-04-24T03:02:47;97123.09;;;10.46;100.00
34586;BME280;20816;50.950;11.108;2023-04-24T03:05:14;97121.56;;;10.40;100.00
34586;BME280;20816;50.950;11.108;2023-04-24T03:07:41;97115.97;;;10.48;100.00
34586;BME280;20816;50.950;11.108;2023-04-24T03:10:08;97124.78;;;10.47;100.00
34586;BME280;20816;50.950;11.108;2023-04-24T03:12:34;97108.53;;;10.57;100.00
34586;BME280;20816;50.950;11.108;2023-04-24T03:15:01;97115.72;;;10.54;100.00
34586;BME280;20816;50.950;11.108;2023-04-24T03:17:28;97101.81;;;10.52;100.00
34586;BME280;20816;50.950;11.108;2023-04-24T03:19:55;97101.91;;;10.49;100.00
34586;BME280;20816;50.950;11.108;2023-04-24T03:22:21;97103.34;;;10.56;100.00
34586;BME280;20816;50.950;11.108;2023-04-24T03:24:48;97103.50;;;10.53;100.00
34586;BME280;20816;50.950;11.108;2023-04-24T03:27:14;97102.22;;;10.43;100.00
34586;BME280;20816;50.950;11.108;2023-04-24T03:29:41;97101.16;;;10.47;100.00
34586;BME280;20816;50.950;11.108;2023-04-24T03:32:08;97104.53;;;10.49;100.00
34586;BME280;20816;50.950;11.108;2023-04-24T03:34:35;97092.25;;;10.49;100.00
34586;BME280;20816;50.950;11.108;2023-04-24T03:37:01;97100.16;;;10.49;100.00
34586;BME280;20816;50.950;11.108;2023-04-24T03:39:28;97097.31;;;10.54;100.00
34586;BME280;20816;50.950;11.108;2023-04-24T03:41:55;97100.22;;;10.48;100.00
34586;BME280;20816;50.950;11.108;2023-04-24T03:44:22;97092.22;;;10.51;100.00
34586;BME280;20816;50.950;11.108;2023-04-24T03:46:48;97093.25;;;10.47;100.00
34586;BME280;20816;50.950;11.108;2023-04-24T03:49:15;97102.34;;;10.39;100.00
34586;BME280;20816;50.950;11.108;2023-04-24T03:51:42;97100.91;;;10.32;100.00
34586;BME280;20816;50.950;11.108;2023-04-24T03:54:09;97111.28;;;10.35;100.00
34586;BME280;20816;50.950;11.108;2023-04-24T03:56:35;97111.28;;;10.35;100.00
34586;BME280;20816;50.950;11.108;2023-04-24T03:59:02;97105.22;;;10.33;100.00
34586;BME280;20816;50.950;11.108;2023-04-24T04:01:28;97103.47;;;10.34;100.00
34586;BME280;20816;50.950;11.108;2023-04-24T04:03:55;97113.00;;;10.36;100.00
34586;BME280;20816;50.950;11.108;2023-04-24T04:06:22;97112.56;;;10.46;100.00
34586;BME280;20816;50.950;11.108;2023-04-24T04:08:49;97106.19;;;10.51;100.00
34586;BME280;20816;50.950;11.108;2023-04-24T04:11:15;97112.00;;;10.39;100.00
34586;BME280;20816;50.950;11.108;2023-04-24T04:13:42;97107.84;;;10.33;100.00
34586;BME280;20816;50.950;11.108;2023-04-24T04:16:09;97113.84;;;10.37;100.00
34586;BME280;20816;50.950;11.108;2023-04-24T04:18:36;97114.44;;;10.44;100.00
34586;BME280;20816;50.950;11.108;2023-04-24T04:21:02;97110.22;;;10.39;100.00
34586;BME280;20816;50.950;11.108;2023-04-24T04:23:29;97115.63;;;10.36;100.00
34586;BME280;20816;50.950;11.108;2023-04-24T04:25:56;97125.56;;;10.49;100.00
34586;BME280;20816;50.950;11.108;2023-04-24T04:28:23;97121.13;;;10.51;100.00
34586;BME280;20816;50.950;11.108;2023-04-24T04:30:51;97120.38;;;10.66;100.00
34586;BME280;20816;50.950;11.108;2023-04-24T04:33:21;97122.75;;;10.72;100.00
34586;BME280;20816;50.950;11.108;2023-04-24T04:35:48;97121.69;;;10.76;100.00
34586;BME280;20816;50.950;11.108;2023-04-24T04:38:15;97115.22;;;10.83;100.00
34586;BME280;20816;50.950;11.108;2023-04-24T04:40:43;97114.31;;;10.84;100.00
34586;BME280;20816;50.950;11.108;2023-04-24T04:43:10;97119.41;;;10.87;100.00
34586;BME280;20816;50.950;11.108;2023-04-24T04:45:37;97114.00;;;10.90;100.00
34586;BME280;20816;50.950;11.108;2023-04-24T04:48:05;97114.72;;;10.94;100.00
34586;BME280;20816;50.950;11.108;2023-04-24T04:50:33;97120.50;;;10.83;100.00
34586;BME280;20816;50.950;11.108;2023-04-24T04:53:00;97119.84;;;10.78;100.00
34586;BME280;20816;50.950;11.108;2023-04-24T04:55:27;97118.28;;;10.93;100.00
34586;BME280;20816;50.950;11.108;2023-04-24T04:57:53;97114.31;;;10.84;100.00
34586;BME280;20816;50.950;11.108;2023-04-24T05:00:22;97121.38;;;10.82;100.00
34586;BME280;20816;50.950;11.108;2023-04-24T05:02:51;97112.28;;;10.89;100.00
34586;BME280;20816;50.950;11.108;2023-04-24T05:05:18;97110.16;;;10.98;100.00
34586;BME280;20816;50.950;11.108;2023-04-24T05:07:45;97119.91;;;10.95;100.00
34586;BME280;20816;50.950;11.108;2023-04-24T05:10:12;97111.72;;;11.02;100.00
34586;BME280;20816;50.950;11.108;2023-04-24T05:12:38;97119.00;;;11.14;100.00
34586;BME280;20816;50.950;11.108;2023-04-24T05:15:05;97111.22;;;11.12;100.00
34586;BME280;20816;50.950;11.108;2023-04-24T05:17:32;97113.69;;;11.15;100.00
34586;BME280;20816;50.950;11.108;2023-04-24T05:19:59;97117.41;;;11.11;100.00
34586;BME280;20816;50.950;11.108;2023-04-24T05:22:27;97119.88;;;11.14;100.00
34586;BME280;20816;50.950;11.108;2023-04-24T05:24:53;97127.47;;;11.20;100.00
34586;BME280;20816;50.950;11.108;2023-04-24T05:27:20;97111.84;;;11.17;100.00
34586;BME280;20816;50.950;11.108;2023-04-24T05:29:47;97123.41;;;11.32;100.00
34586;BME280;20816;50.950;11.108;2023-04-24T05:32:13;97118.16;;;11.32;100.00
34586;BME280;20816;50.950;11.108;2023-04-24T05:34:40;97127.59;;;11.36;100.00
34586;BME280;20816;50.950;11.108;2023-04-24T05:37:07;97124.88;;;11.38;100.00
34586;BME280;20816;50.950;11.108;2023-04-24T05:39:36;97130.97;;;11.38;100.00
34586;BME280;20816;50.950;11.108;2023-04-24T05:42:03;97119.16;;;11.47;100.00
34586;BME280;20816;50.950;11.108;2023-04-24T05:44:31;97132.25;;;11.48;100.00
34586;BME280;20816;50.950;11.108;2023-04-24T05:46:57;97127.69;;;11.52;100.00
34586;BME280;20816;50.950;11.108;2023-04-24T05:49:24;97126.38;;;11.61;100.00
34586;BME280;20816;50.950;11.108;2023-04-24T05:51:51;97121.03;;;11.62;100.00
34586;BME280;20816;50.950;11.108;2023-04-24T05:54:18;97131.66;;;11.78;100.00
34586;BME280;20816;50.950;11.108;2023-04-24T05:56:44;97127.97;;;11.82;99.20
34586;BME280;20816;50.950;11.108;2023-04-24T05:59:11;97124.97;;;11.71;99.77
34586;BME280;20816;50.950;11.108;2023-04-24T06:01:38;97128.56;;;11.70;99.51
34586;BME280;20816;50.950;11.108;2023-04-24T06:04:04;97125.91;;;11.70;99.10
34586;BME280;20816;50.950;11.108;2023-04-24T06:06:32;97130.16;;;11.72;98.51
34586;BME280;20816;50.950;11.108;2023-04-24T06:08:59;97122.72;;;11.63;99.27
34586;BME280;20816;50.950;11.108;2023-04-24T06:11:26;97135.03;;;11.82;98.01
34586;BME280;20816;50.950;11.108;2023-04-24T06:13:52;97136.72;;;11.83;97.13
34586;BME280;20816;50.950;11.108;2023-04-24T06:16:19;97143.53;;;11.87;97.62
34586;BME280;20816;50.950;11.108;2023-04-24T06:18:46;97143.81;;;11.81;97.02
34586;BME280;20816;50.950;11.108;2023-04-24T06:21:17;97145.81;;;11.75;97.75
34586;BME280;20816;50.950;11.108;2023-04-24T06:23:44;97152.59;;;11.81;97.42
34586;BME280;20816;50.950;11.108;2023-04-24T06:26:12;97145.56;;;11.82;96.48
34586;BME280;20816;50.950;11.108;2023-04-24T06:28:39;97150.06;;;11.78;96.01
34586;BME280;20816;50.950;11.108;2023-04-24T06:31:06;97143.03;;;11.78;96.76
34586;BME280;20816;50.950;11.108;2023-04-24T06:33:33;97150.66;;;11.85;97.12
34586;BME280;20816;50.950;11.108;2023-04-24T06:35:59;97150.44;;;11.89;97.53
34586;BME280;20816;50.950;11.108;2023-04-24T06:38:26;97153.59;;;11.96;96.83
34586;BME280;20816;50.950;11.108;2023-04-24T06:40:53;97151.50;;;12.02;96.03
34586;BME280;20816;50.950;11.108;2023-04-24T06:43:19;97158.47;;;12.21;96.24
34586;BME280;20816;50.950;11.108;2023-04-24T06:45:46;97162.47;;;12.28;96.46
34586;BME280;20816;50.950;11.108;2023-04-24T06:48:13;97154.47;;;12.14;94.70
34586;BME280;20816;50.950;11.108;2023-04-24T06:50:40;97151.88;;;12.12;95.69
34586;BME280;20816;50.950;11.108;2023-04-24T06:53:07;97155.13;;;12.17;95.05
34586;BME280;20816;50.950;11.108;2023-04-24T06:55:35;97161.09;;;12.21;94.06
34586;BME280;20816;50.950;11.108;2023-04-24T06:58:02;97154.28;;;12.17;93.67
34586;BME280;20816;50.950;11.108;2023-04-24T07:00:29;97164.53;;;12.05;94.79
34586;BME280;20816;50.950;11.108;2023-04-24T07:02:56;97165.22;;;12.09;95.50
34586;BME280;20816;50.950;11.108;2023-04-24T07:05:24;97161.28;;;12.00;94.28
34586;BME280;20816;50.950;11.108;2023-04-24T07:07:51;97171.97;;;11.97;94.19
34586;BME280;20816;50.950;11.108;2023-04-24T07:10:18;97168.88;;;11.89;95.47
34586;BME280;20816;50.950;11.108;2023-04-24T07:12:44;97172.34;;;11.90;94.57
34586;BME280;20816;50.950;11.108;2023-04-24T07:15:11;97166.88;;;11.75;95.53
34586;BME280;20816;50.950;11.108;2023-04-24T07:17:38;97166.88;;;11.75;95.66
34586;BME280;20816;50.950;11.108;2023-04-24T07:20:10;97160.91;;;11.72;95.04
34586;BME280;20816;50.950;11.108;2023-04-24T07:22:38;97152.63;;;11.79;94.35
34586;BME280;20816;50.950;11.108;2023-04-24T07:25:05;97153.06;;;11.89;94.81
34586;BME280;20816;50.950;11.108;2023-04-24T07:27:33;97161.44;;;11.97;94.34
34586;BME280;20816;50.950;11.108;2023-04-24T07:30:00;97161.19;;;12.02;93.77
34586;BME280;20816;50.950;11.108;2023-04-24T07:32:27;97167.78;;;12.11;92.90
34586;BME280;20816;50.950;11.108;2023-04-24T07:34:54;97163.09;;;12.33;92.37
34586;BME280;20816;50.950;11.108;2023-04-24T07:37:22;97177.03;;;12.35;91.91
34586;BME280;20816;50.950;11.108;2023-04-24T07:39:48;97165.66;;;12.34;91.80
34586;BME280;20816;50.950;11.108;2023-04-24T07:42:15;97175.50;;;12.48;90.82
34586;BME280;20816;50.950;11.108;2023-04-24T07:44:42;97164.59;;;12.72;90.98
34586;BME280;20816;50.950;11.108;2023-04-24T07:47:09;97172.56;;;12.70;88.91
34586;BME280;20816;50.950;11.108;2023-04-24T07:49:35;97172.25;;;12.92;87.13
34586;BME280;20816;50.950;11.108;2023-04-24T07:52:02;97171.22;;;12.79;84.80
34586;BME280;20816;50.950;11.108;2023-04-24T07:54:29;97176.66;;;12.76;85.71
34586;BME280;20816;50.950;11.108;2023-04-24T07:56:56;97186.78;;;12.83;83.30
34586;BME280;20816;50.950;11.108;2023-04-24T07:59:23;97182.38;;;12.84;82.00
34586;BME280;20816;50.950;11.108;2023-04-24T08:01:49;97179.59;;;12.87;82.80
34586;BME280;20816;50.950;11.108;2023-04-24T08:04:16;97185.22;;;12.97;81.58
34586;BME280;20816;50.950;11.108;2023-04-24T08:06:44;97184.41;;;13.28;81.06
34586;BME280;20816;50.950;11.108;2023-04-24T08:09:11;97192.66;;;13.22;80.19
34586;BME280;20816;50.950;11.108;2023-04-24T08:11:38;97185.28;;;13.28;78.93
34586;BME280;20816;50.950;11.108;2023-04-24T08:14:05;97186.69;;;13.34;78.14
34586;BME280;20816;50.950;11.108;2023-04-24T08:16:32;97184.06;;;13.34;77.54
34586;BME280;20816;50.950;11.108;2023-04-24T08:18:59;97189.44;;;13.32;75.38
34586;BME280;20816;50.950;11.108;2023-04-24T08:21:26;97195.97;;;13.57;76.45
34586;BME280;20816;50.950;11.108;2023-04-24T08:23:53;97195.69;;;13.93;75.44
34586;BME280;20816;50.950;11.108;2023-04-24T08:26:20;97190.66;;;14.18;72.93
34586;BME280;20816;50.950;11.108;2023-04-24T08:28:46;97193.66;;;14.12;72.85
34586;BME280;20816;50.950;11.108;2023-04-24T08:31:13;97197.72;;;13.88;74.39
34586;BME280;20816;50.950;11.108;2023-04-24T08:33:40;97198.78;;;13.69;73.19
34586;BME280;20816;50.950;11.108;2023-04-24T08:36:07;97212.41;;;13.46;74.48
34586;BME280;20816;50.950;11.108;2023-04-24T08:38:34;97206.88;;;13.35;75.49
34586;BME280;20816;50.950;11.108;2023-04-24T08:41:01;97219.06;;;13.37;76.65
34586;BME280;20816;50.950;11.108;2023-04-24T08:43:28;97215.19;;;13.11;75.37
34586;BME280;20816;50.950;11.108;2023-04-24T08:45:56;97211.22;;;13.03;73.90
34586;BME280;20816;50.950;11.108;2023-04-24T08:48:23;97216.09;;;13.28;73.51
34586;BME280;20816;50.950;11.108;2023-04-24T08:50:58;97217.56;;;13.16;72.89
34586;BME280;20816;50.950;11.108;2023-04-24T08:53:26;97228.69;;;13.05;73.28
34586;BME280;20816;50.950;11.108;2023-04-24T08:55:54;97227.59;;;13.09;72.01
34586;BME280;20816;50.950;11.108;2023-04-24T08:58:22;97227.13;;;13.01;72.54
34586;BME280;20816;50.950;11.108;2023-04-24T09:00:53;97220.84;;;13.53;70.94
34586;BME280;20816;50.950;11.108;2023-04-24T09:03:20;97216.28;;;14.02;66.52
34586;BME280;20816;50.950;11.108;2023-04-24T09:05:49;97205.34;;;13.78;64.28
34586;BME280;20816;50.950;11.108;2023-04-24T09:08:18;97217.00;;;13.58;65.39
34586;BME280;20816;50.950;11.108;2023-04-24T09:10:45;97213.00;;;13.67;65.35
34586;BME280;20816;50.950;11.108;2023-04-24T09:13:16;97219.41;;;14.39;64.25
34586;BME280;20816;50.950;11.108;2023-04-24T09:15:43;97214.78;;;15.15;63.69
34586;BME280;20816;50.950;11.108;2023-04-24T09:18:10;97209.75;;;15.25;63.10
34586;BME280;20816;50.950;11.108;2023-04-24T09:21:03;97220.72;;;15.33;63.41
34586;BME280;20816;50.950;11.108;2023-04-24T09:23:31;97219.81;;;15.75;60.59
34586;BME280;20816;50.950;11.108;2023-04-24T09:26:00;97222.78;;;16.10;59.71
34586;BME280;20816;50.950;11.108;2023-04-24T09:28:29;97221.31;;;16.59;58.39
34586;BME280;20816;50.950;11.108;2023-04-24T09:31:12;97213.16;;;16.74;56.85
34586;BME280;20816;50.950;11.108;2023-04-24T09:33:42;97220.00;;;16.51;58.54
34586;BME280;20816;50.950;11.108;2023-04-24T09:36:27;97227.13;;;16.51;57.97
34586;BME280;20816;50.950;11.108;2023-04-24T09:38:58;97235.47;;;16.72;57.60
34586;BME280;20816;50.950;11.108;2023-04-24T09:41:25;97241.84;;;16.82;56.95
34586;BME280;20816;50.950;11.108;2023-04-24T09:43:56;97244.50;;;17.07;57.68
34586;BME280;20816;50.950;11.108;2023-04-24T09:46:30;97253.31;;;16.70;58.52
34586;BME280;20816;50.950;11.108;2023-04-24T09:49:14;97245.34;;;16.70;57.50
34586;BME280;20816;50.950;11.108;2023-04-24T09:51:44;97255.34;;;16.39;58.05
34586;BME280;20816;50.950;11.108;2023-04-24T09:54:14;97260.78;;;15.69;59.53
34586;BME280;20816;50.950;11.108;2023-04-24T09:56:43;97261.28;;;15.19;60.53
34586;BME280;20816;50.950;11.108;2023-04-24T09:59:12;97261.34;;;14.75;61.46
34586;BME280;20816;50.950;11.108;2023-04-24T10:01:40;97256.13;;;14.59;62.15
34586;BME280;20816;50.950;11.108;2023-04-24T10:04:22;97250.84;;;14.59;61.78
34586;BME280;20816;50.950;11.108;2023-04-24T10:06:51;97252.72;;;14.71;61.54
34586;BME280;20816;50.950;11.108;2023-04-24T10:09:20;97257.91;;;14.58;62.63
34586;BME280;20816;50.950;11.108;2023-04-24T10:11:49;97252.41;;;14.47;61.00
34586;BME280;20816;50.950;11.108;2023-04-24T10:14:18;97244.28;;;14.20;60.48
34586;BME280;20816;50.950;11.108;2023-04-24T10:16:45;97251.03;;;14.40;60.61
34586;BME280;20816;50.950;11.108;2023-04-24T10:19:16;97250.31;;;15.11;60.47
34586;BME280;20816;50.950;11.108;2023-04-24T10:21:47;97262.00;;;16.32;59.15
34586;BME280;20816;50.950;11.108;2023-04-24T10:24:15;97266.38;;;16.98;56.71
34586;BME280;20816;50.950;11.108;2023-04-24T10:26:43;97258.78;;;17.56;54.33
34586;BME280;20816;50.950;11.108;2023-04-24T10:29:16;97258.03;;;17.41;54.28
34586;BME280;20816;50.950;11.108;2023-04-24T10:31:43;97265.84;;;17.19;53.25
34586;BME280;20816;50.950;11.108;2023-04-24T10:34:15;97269.84;;;17.37;52.69
34586;BME280;20816;50.950;11.108;2023-04-24T10:36:46;97252.22;;;17.36;52.65
34586;BME280;20816;50.950;11.108;2023-04-24T10:39:15;97259.84;;;17.53;52.92
34586;BME280;20816;50.950;11.108;2023-04-24T10:41:43;97262.41;;;17.42;51.48
34586;BME280;20816;50.950;11.108;2023-04-24T10:44:14;97262.81;;;17.61;52.18
34586;BME280;20816;50.950;11.108;2023-04-24T10:46:45;97269.25;;;16.95;53.06
34586;BME280;20816;50.950;11.108;2023-04-24T10:49:12;97270.59;;;16.09;54.80
34586;BME280;20816;50.950;11.108;2023-04-24T10:51:45;97276.19;;;15.77;54.29
34586;BME280;20816;50.950;11.108;2023-04-24T10:54:42;97271.50;;;16.62;54.31
34586;BME280;20816;50.950;11.108;2023-04-24T11:00:32;97260.25;;;17.60;53.98
34586;BME280;20816;50.950;11.108;2023-04-24T11:02:40;97276.00;;;17.76;52.94
34586;BME280;20816;50.950;11.108;2023-04-24T11:05:10;97265.19;;;18.38;52.44
34586;BME280;20816;50.950;11.108;2023-04-24T11:11:13;97279.78;;;17.84;53.05
34586;BME280;20816;50.950;11.108;2023-04-24T11:16:34;97272.28;;;18.02;52.40
34586;BME280;20816;50.950;11.108;2023-04-24T11:19:03;97281.72;;;18.30;51.64
34586;BME280;20816;50.950;11.108;2023-04-24T11:22:02;97267.75;;;18.15;51.10
34586;BME280;20816;50.950;11.108;2023-04-24T11:27:12;97275.44;;;18.07;51.42
34586;BME280;20816;50.950;11.108;2023-04-24T11:29:45;97265.84;;;18.65;52.43
34586;BME280;20816;50.950;11.108;2023-04-24T11:34:50;97271.97;;;17.70;51.65
34586;BME280;20816;50.950;11.108;2023-04-24T11:37:17;97277.34;;;17.69;52.14
34586;BME280;20816;50.950;11.108;2023-04-24T11:39:44;97274.00;;;17.16;51.91
34586;BME280;20816;50.950;11.108;2023-04-24T11:42:14;97283.66;;;16.91;53.10
34586;BME280;20816;50.950;11.108;2023-04-24T11:44:42;97281.09;;;16.77;53.99
34586;BME280;20816;50.950;11.108;2023-04-24T11:47:09;97285.75;;;16.07;55.44
34586;BME280;20816;50.950;11.108;2023-04-24T11:49:37;97296.19;;;15.95;55.71
34586;BME280;20816;50.950;11.108;2023-04-24T11:52:04;97282.31;;;16.59;56.35
34586;BME280;20816;50.950;11.108;2023-04-24T11:54:31;97301.94;;;16.56;56.54
34586;BME280;20816;50.950;11.108;2023-04-24T11:56:58;97294.81;;;15.90;57.09
34586;BME280;20816;50.950;11.108;2023-04-24T11:59:25;97299.13;;;16.45;58.46
34586;BME280;20816;50.950;11.108;2023-04-24T12:01:52;97299.28;;;17.08;56.04
34586;BME280;20816;50.950;11.108;2023-04-24T12:04:19;97293.41;;;17.54;56.43
34586;BME280;20816;50.950;11.108;2023-04-24T12:06:59;97292.53;;;17.92;56.78
34586;BME280;20816;50.950;11.108;2023-04-24T12:09:27;97288.06;;;17.67;54.67
34586;BME280;20816;50.950;11.108;2023-04-24T12:11:55;97288.53;;;17.48;57.00
34586;BME280;20816;50.950;11.108;2023-04-24T12:14:25;97291.53;;;17.05;57.21
34586;BME280;20816;50.950;11.108;2023-04-24T12:16:53;97304.47;;;17.10;57.08
34586;BME280;20816;50.950;11.108;2023-04-24T12:19:21;97303.84;;;17.06;57.44
34586;BME280;20816;50.950;11.108;2023-04-24T12:22:04;97308.50;;;17.54;56.32
34586;BME280;20816;50.950;11.108;2023-04-24T12:24:31;97306.81;;;17.53;57.27
34586;BME280;20816;50.950;11.108;2023-04-24T12:26:58;97300.41;;;17.81;56.24
34586;BME280;20816;50.950;11.108;2023-04-24T12:29:28;97294.50;;;16.88;55.98
34586;BME280;20816;50.950;11.108;2023-04-24T12:31:54;97321.66;;;16.25;58.06
34586;BME280;20816;50.950;11.108;2023-04-24T12:34:23;97310.22;;;16.24;57.37
34586;BME280;20816;50.950;11.108;2023-04-24T12:36:51;97317.22;;;15.98;58.83
34586;BME280;20816;50.950;11.108;2023-04-24T12:39:19;97317.22;;;15.84;59.23
34586;BME280;20816;50.950;11.108;2023-04-24T12:41:56;97319.91;;;15.70;60.87
34586;BME280;20816;50.950;11.108;2023-04-24T12:44:34;97314.97;;;15.07;59.67
34586;BME280;20816;50.950;11.108;2023-04-24T12:47:01;97318.72;;;15.03;61.17
34586;BME280;20816;50.950;11.108;2023-04-24T12:49:30;97325.28;;;14.67;60.41
34586;BME280;20816;50.950;11.108;2023-04-24T12:51:56;97334.38;;;14.77;61.88
34586;BME280;20816;50.950;11.108;2023-04-24T12:54:23;97331.03;;;14.44;62.72
34586;BME280;20816;50.950;11.108;2023-04-24T12:56:50;97342.28;;;14.16;64.62
34586;BME280;20816;50.950;11.108;2023-04-24T12:59:17;97346.41;;;14.06;75.61
34586;BME280;20816;50.950;11.108;2023-04-24T13:01:44;97358.16;;;14.00;78.43
34586;BME280;20816;50.950;11.108;2023-04-24T13:04:11;97356.34;;;13.69;78.60